Time;durP1;ratioP1;P1;durP2;ratioP2;P2;SDS_P1;SDS_P2;PMS_P1;PMS_P2;Temp;Humidity;BMP_temperature;BMP_pressure;BME280_temperature;BME280_humidity;BME280_pressure;Samples;Min_cycle;Max_cycle;Signal;HPM_P1;HPM_P2
2023/04/16 00:00:02;;;;;;;5.45;1.40;;;;;;;5.42;100.00;100121.16;5004530;28;20041;-77
2023/04/16 00:02:28;;;;;;;3.35;1.42;;;;;;;5.37;100.00;100131.84;5001362;28;20124;-77
2023/04/16 00:04:53;;;;;;;4.57;1.08;;;;;;;5.37;100.00;100120.69;5005643;28;20093;-77
2023/04/16 00:07:19;;;;;;;2.78;1.35;;;;;;;5.40;100.00;100121.28;5012485;28;20543;-77
2023/04/16 00:09:45;;;;;;;2.88;1.13;;;;;;;5.37;100.00;100131.84;5006407;28;20033;-77
2023/04/16 00:12:10;;;;;;;2.97;1.40;;;;;;;5.34;100.00;100127.72;5012343;28;20109;-78
2023/04/16 00:14:36;;;;;;;1.58;1.10;;;;;;;5.32;100.00;100113.28;5023693;28;20029;-77
2023/04/16 00:17:01;;;;;;;3.03;1.67;;;;;;;5.25;100.00;100135.38;5012695;28;20514;-77
2023/04/16 00:19:26;;;;;;;1.70;1.08;;;;;;;5.29;100.00;100119.53;5008717;28;20030;-77
2023/04/16 00:21:52;;;;;;;2.15;1.60;;;;;;;5.28;100.00;100124.81;5014710;28;20026;-77
2023/04/16 00:24:17;;;;;;;5.30;1.38;;;;;;;5.23;100.00;100125.16;5006966;28;20125;-77
2023/04/16 00:26:45;;;;;;;5.53;2.90;;;;;;;5.31;100.00;100111.66;5021316;28;20091;-77
2023/04/16 00:29:10;;;;;;;4.47;1.70;;;;;;;5.33;100.00;100109.78;5007992;28;20030;-77
2023/04/16 00:31:36;;;;;;;2.50;2.28;;;;;;;5.21;100.00;100114.13;5001330;28;20053;-77
2023/04/16 00:34:01;;;;;;;2.53;2.08;;;;;;;5.15;100.00;100111.22;5009256;28;20183;-77
2023/04/16 00:36:27;;;;;;;3.20;1.88;;;;;;;5.05;100.00;100118.03;5000503;28;20034;-76
2023/04/16 00:38:54;;;;;;;2.90;2.10;;;;;;;5.01;100.00;100112.28;4998702;28;20056;-77
2023/04/16 00:41:21;;;;;;;2.60;2.15;;;;;;;4.96;100.00;100112.63;5005868;28;20043;-76
2023/04/16 00:43:47;;;;;;;6.30;2.25;;;;;;;4.93;100.00;100117.19;5005869;28;20091;-77
2023/04/16 00:46:13;;;;;;;2.40;1.73;;;;;;;4.90;100.00;100117.44;5009475;28;20033;-76
2023/04/16 00:48:40;;;;;;;2.85;2.17;;;;;;;4.88;100.00;100121.88;5004274;28;20057;-77
2023/04/16 00:51:07;;;;;;;2.17;1.92;;;;;;;4.84;100.00;100110.97;5004394;28;20042;-77
2023/04/16 00:53:33;;;;;;;5.50;2.47;;;;;;;4.77;100.00;100112.38;5002526;28;20491;-77
2023/04/16 00:55:59;;;;;;;2.63;1.95;;;;;;;4.70;100.00;100113.78;5001594;28;20041;-77
2023/04/16 00:58:25;;;;;;;2.75;2.55;;;;;;;4.66;100.00;100110.63;5008925;28;20038;-77
2023/04/16 01:00:50;;;;;;;2.40;2.17;;;;;;;4.76;100.00;100110.72;5011553;28;20033;-77
2023/04/16 01:03:16;;;;;;;3.72;1.60;;;;;;;4.77;100.00;100107.19;5004490;28;21019;-76
2023/04/16 01:05:44;;;;;;;3.30;1.70;;;;;;;4.73;100.00;100110.13;5013482;28;20128;-77
2023/04/16 01:08:20;;;;;;;2.03;1.58;;;;;;;4.66;100.00;100114.97;5017102;28;20478;-77
2023/04/16 01:10:45;;;;;;;2.28;1.40;;;;;;;4.67;100.00;100111.44;5004948;28;20480;-77
2023/04/16 01:13:11;;;;;;;2.80;1.73;;;;;;;4.64;100.00;100119.41;5006433;28;20033;-77
2023/04/16 01:15:37;;;;;;;5.65;1.40;;;;;;;4.67;100.00;100114.03;5017608;28;20422;-76
2023/04/16 01:18:02;;;;;;;3.63;1.20;;;;;;;4.69;100.00;100099.25;5007251;28;20049;-77
2023/04/16 01:20:28;;;;;;;2.90;0.98;;;;;;;4.74;100.00;100110.00;5008827;28;20030;-77
2023/04/16 01:22:53;;;;;;;3.40;1.10;;;;;;;4.67;100.00;100098.53;5008473;28;20556;-77
2023/04/16 01:25:19;;;;;;;3.00;0.80;;;;;;;4.69;100.00;100106.16;5005415;28;20034;-77
2023/04/16 01:27:48;;;;;;;2.85;1.13;;;;;;;4.62;100.00;100113.53;5008237;28;20125;-77
2023/04/16 01:30:14;;;;;;;2.42;0.63;;;;;;;4.50;100.00;100114.44;5002240;28;20803;-77
2023/04/16 01:32:39;;;;;;;1.38;0.80;;;;;;;4.56;100.00;100103.69;5006605;28;20113;-76
2023/04/16 01:35:05;;;;;;;1.60;0.52;;;;;;;4.45;100.00;100119.13;5007758;28;20034;-77
2023/04/16 01:37:31;;;;;;;2.45;0.80;;;;;;;4.55;100.00;100112.34;5005043;28;20030;-77
2023/04/16 01:39:56;;;;;;;1.15;0.60;;;;;;;4.53;100.00;100098.75;5005640;28;20083;-77
2023/04/16 01:42:21;;;;;;;2.45;0.88;;;;;;;4.43;100.00;100108.09;4999974;28;20026;-77
2023/04/16 01:44:47;;;;;;;2.63;0.90;;;;;;;4.43;100.00;100102.94;5000842;28;20037;-77
2023/04/16 01:47:12;;;;;;;2.05;0.82;;;;;;;4.41;100.00;100109.97;5004114;28;20137;-78
2023/04/16 01:49:37;;;;;;;1.70;1.15;;;;;;;4.47;100.00;100119.84;5010608;28;20559;-78
2023/04/16 01:52:03;;;;;;;1.40;0.70;;;;;;;4.43;100.00;100113.25;5010357;28;20025;-77
2023/04/16 01:54:28;;;;;;;2.70;0.85;;;;;;;4.42;100.00;100116.78;5003126;28;20034;-78
2023/04/16 01:56:54;;;;;;;1.13;0.68;;;;;;;4.47;100.00;100112.09;5006093;28;20069;-77
2023/04/16 01:59:19;;;;;;;2.15;0.70;;;;;;;4.45;100.00;100111.38;5006981;28;20036;-77
2023/04/16 02:01:45;;;;;;;0.98;0.63;;;;;;;4.40;100.00;100109.16;5011570;28;20043;-76
2023/04/16 02:04:11;;;;;;;1.65;0.70;;;;;;;4.34;100.00;100115.56;5025763;28;20030;-76
2023/04/16 02:06:36;;;;;;;2.45;0.50;;;;;;;4.31;100.00;100130.44;5009170;28;20049;-76
2023/04/16 02:09:02;;;;;;;0.98;0.60;;;;;;;4.31;100.00;100130.44;5013223;28;20036;-76
2023/04/16 02:11:27;;;;;;;1.90;0.50;;;;;;;4.31;100.00;100114.97;5013808;28;20025;-77
2023/04/16 02:13:52;;;;;;;3.47;0.60;;;;;;;4.28;100.00;100128.09;5013969;28;20483;-77
2023/04/16 02:16:18;;;;;;;2.67;0.65;;;;;;;4.26;100.00;100123.06;5006558;28;20045;-75
2023/04/16 02:18:43;;;;;;;1.48;0.57;;;;;;;4.26;100.00;100138.53;5013592;28;20124;-76
2023/04/16 02:21:08;;;;;;;3.38;0.70;;;;;;;4.28;100.00;100131.50;5011656;28;20033;-77
2023/04/16 02:23:34;;;;;;;1.65;0.60;;;;;;;4.33;100.00;100126.00;5021614;28;20418;-76
2023/04/16 02:26:01;;;;;;;1.88;0.40;;;;;;;4.36;100.00;100124.97;4998409;28;20041;-75
2023/04/16 02:28:27;;;;;;;3.33;0.52;;;;;;;4.33;100.00;100119.09;5000034;28;20488;-76
2023/04/16 02:30:52;;;;;;;3.15;0.63;;;;;;;4.40;100.00;100128.97;5011842;28;20030;-77
2023/04/16 02:33:19;;;;;;;1.27;0.50;;;;;;;4.31;100.00;100126.13;4999075;28;20030;-76
2023/04/16 02:35:44;;;;;;;1.40;0.55;;;;;;;4.33;100.00;100119.09;5001336;28;20038;-77
2023/04/16 02:38:10;;;;;;;1.88;0.50;;;;;;;4.30;100.00;100127.06;5000796;28;20045;-76
2023/04/16 02:40:35;;;;;;;2.08;0.65;;;;;;;4.36;100.00;100112.88;5017156;28;20025;-77
2023/04/16 02:43:00;;;;;;;2.65;0.90;;;;;;;4.36;100.00;100130.94;5012778;28;20080;-77
2023/04/16 02:45:26;;;;;;;1.05;0.65;;;;;;;4.37;100.00;100129.19;5004883;28;20038;-76
2023/04/16 02:47:51;;;;;;;1.33;0.63;;;;;;;4.40;100.00;100118.63;4999689;28;20080;-76
2023/04/16 02:50:17;;;;;;;1.55;0.80;;;;;;;4.38;100.00;100126.50;5011340;28;20314;-76
2023/04/16 02:52:42;;;;;;;1.15;0.82;;;;;;;4.30;100.00;100119.31;5003623;28;20547;-76
2023/04/16 02:55:08;;;;;;;1.95;0.85;;;;;;;4.33;100.00;100124.25;5002910;28;20491;-76
2023/04/16 02:57:34;;;;;;;1.15;1.00;;;;;;;4.36;100.00;100130.13;5002546;28;20037;-76
2023/04/16 03:00:00;;;;;;;1.50;1.10;;;;;;;4.29;100.00;100153.78;5011915;28;20387;-76
2023/04/16 03:02:26;;;;;;;1.20;0.70;;;;;;;4.28;100.00;100123.75;5012074;28;20136;-76
2023/04/16 03:04:52;;;;;;;1.77;0.80;;;;;;;4.27;100.00;100118.72;5017693;28;20053;-76
2023/04/16 03:07:17;;;;;;;1.35;1.13;;;;;;;4.32;100.00;100127.75;5014363;28;20022;-76
2023/04/16 03:09:43;;;;;;;2.28;0.80;;;;;;;4.37;100.00;100126.59;5020037;28;20040;-76
2023/04/16 03:12:09;;;;;;;1.63;1.23;;;;;;;4.41;100.00;100130.59;5009843;28;20485;-76
2023/04/16 03:14:34;;;;;;;4.03;0.90;;;;;;;4.48;100.00;100131.81;5011403;28;20030;-76
2023/04/16 03:17:00;;;;;;;2.05;0.93;;;;;;;4.45;100.00;100145.75;5015637;28;20092;-77
2023/04/16 03:19:25;;;;;;;3.58;1.08;;;;;;;4.37;100.00;100135.16;5027773;28;20041;-76
2023/04/16 03:21:50;;;;;;;1.60;0.82;;;;;;;4.36;100.00;100137.84;5033703;28;20036;-76
2023/04/16 03:24:16;;;;;;;1.40;1.00;;;;;;;4.37;100.00;100129.19;5023562;28;20065;-76
2023/04/16 03:26:41;;;;;;;3.20;0.85;;;;;;;4.32;100.00;100140.66;5019847;28;20119;-76
2023/04/16 03:29:07;;;;;;;1.35;1.08;;;;;;;4.24;100.00;100145.59;5029040;28;20041;-77
2023/04/16 03:31:32;;;;;;;3.25;1.05;;;;;;;4.27;100.00;100135.00;5033237;28;20037;-77
2023/04/16 03:33:57;;;;;;;2.53;1.15;;;;;;;4.26;100.00;100140.28;5038505;28;20010;-77
2023/04/16 03:36:24;;;;;;;1.40;1.30;;;;;;;4.21;100.00;100150.13;5026898;28;20057;-77
2023/04/16 03:38:49;;;;;;;2.65;0.90;;;;;;;4.18;100.00;100156.34;5013979;28;20128;-76
2023/04/16 03:41:15;;;;;;;1.30;1.20;;;;;;;4.15;100.00;100153.97;5006664;28;20060;-76
2023/04/16 03:43:40;;;;;;;1.20;0.93;;;;;;;4.09;100.00;100159.56;5008112;28;20033;-76
2023/04/16 03:46:06;;;;;;;1.60;1.20;;;;;;;4.06;100.00;100157.22;5002422;28;20108;-76
2023/04/16 03:48:31;;;;;;;1.90;1.10;;;;;;;4.05;100.00;100159.91;5004662;28;20041;-76
2023/04/16 03:50:57;;;;;;;1.30;0.80;;;;;;;4.07;100.00;100166.59;5002713;28;20030;-76
2023/04/16 03:53:23;;;;;;;3.67;1.42;;;;;;;4.19;100.00;100163.13;5008054;28;20519;-76
2023/04/16 03:55:52;;;;;;;1.85;1.40;;;;;;;4.16;100.00;100168.53;5008156;28;20026;-76
2023/04/16 03:58:18;;;;;;;1.70;1.00;;;;;;;4.12;100.00;100174.81;5006318;28;20531;-76
2023/04/16 04:00:43;;;;;;;4.30;1.88;;;;;;;4.07;100.00;100171.75;5009241;28;20120;-77
2023/04/16 04:03:12;;;;;;;10.27;6.72;;;;;;;4.07;100.00;100169.19;5011371;28;20089;-77
2023/04/16 04:05:41;;;;;;;6.45;4.45;;;;;;;4.06;100.00;100172.69;5018277;28;20046;-76
2023/04/16 04:08:07;;;;;;;4.95;3.30;;;;;;;4.11;100.00;100191.22;5012603;28;20088;-77
2023/04/16 04:10:36;;;;;;;5.35;3.65;;;;;;;4.16;100.00;100181.41;5012071;28;20054;-76
2023/04/16 04:13:03;;;;;;;5.18;3.35;;;;;;;4.14;100.00;100180.69;5022590;28;20045;-77
2023/04/16 04:15:29;;;;;;;3.92;1.73;;;;;;;4.03;100.00;100195.28;5017666;28;20021;-76
2023/04/16 04:17:55;;;;;;;2.80;1.80;;;;;;;4.03;100.00;100203.84;5011515;28;20026;-76
2023/04/16 04:20:20;;;;;;;3.53;2.42;;;;;;;4.03;100.00;100203.00;5015461;28;20041;-75
2023/04/16 04:22:46;;;;;;;5.15;1.58;;;;;;;3.99;100.00;100208.38;5010483;28;20114;-76
2023/04/16 04:25:11;;;;;;;3.05;1.13;;;;;;;4.14;100.00;100208.25;5017690;28;20033;-77
2023/04/16 04:27:37;;;;;;;1.42;0.70;;;;;;;4.13;100.00;100215.16;5016113;28;20079;-77
2023/04/16 04:30:03;;;;;;;1.70;0.80;;;;;;;4.07;100.00;100212.19;5027708;28;20030;-76
2023/04/16 04:32:30;;;;;;;2.15;0.80;;;;;;;4.14;100.00;100213.41;5025595;28;20054;-76
2023/04/16 04:34:55;;;;;;;2.08;0.88;;;;;;;4.14;100.00;100221.13;5009278;28;20475;-76
2023/04/16 04:37:21;;;;;;;1.50;0.80;;;;;;;4.17;100.00;100242.38;5008093;28;20044;-77
2023/04/16 04:39:46;;;;;;;1.45;0.90;;;;;;;4.20;100.00;100223.28;5024359;28;20103;-77
2023/04/16 04:42:11;;;;;;;1.88;1.38;;;;;;;4.24;100.00;100227.28;5024757;28;20028;-77
2023/04/16 04:44:37;;;;;;;1.35;1.00;;;;;;;4.31;100.00;100224.13;5024635;28;20147;-76
2023/04/16 04:47:02;;;;;;;2.25;1.33;;;;;;;4.38;100.00;100249.47;5017984;28;20120;-76
2023/04/16 04:49:29;;;;;;;1.42;1.00;;;;;;;4.45;100.00;100245.53;5013069;28;20111;-78
2023/04/16 04:51:54;;;;;;;1.50;0.90;;;;;;;4.55;100.00;100236.19;5026913;28;20446;-78
2023/04/16 04:54:20;;;;;;;1.90;1.30;;;;;;;4.55;100.00;100231.03;5029340;28;20065;-78
2023/04/16 04:56:46;;;;;;;2.25;1.40;;;;;;;4.56;100.00;100236.09;5033836;28;20025;-77
2023/04/16 04:59:11;;;;;;;3.47;1.10;;;;;;;4.47;100.00;100238.50;5018899;28;20037;-77
2023/04/16 05:01:37;;;;;;;1.45;1.35;;;;;;;4.54;100.00;100242.28;5028957;28;20029;-78
2023/04/16 05:04:02;;;;;;;1.58;1.00;;;;;;;4.60;100.00;100234.94;5026653;28;20049;-76
2023/04/16 05:06:28;;;;;;;2.05;1.40;;;;;;;4.62;100.00;100243.38;5023666;28;20068;-77
2023/04/16 05:08:53;;;;;;;2.22;1.98;;;;;;;4.71;100.00;100246.22;5031831;28;20053;-76
2023/04/16 05:11:19;;;;;;;1.95;1.00;;;;;;;4.85;100.00;100253.75;5020829;28;20031;-77
2023/04/16 05:13:44;;;;;;;2.63;1.10;;;;;;;4.95;100.00;100247.81;5022636;28;20034;-76
2023/04/16 05:16:10;;;;;;;2.22;1.02;;;;;;;4.99;100.00;100241.47;5021832;28;20023;-77
2023/04/16 05:18:35;;;;;;;1.95;1.05;;;;;;;4.97;100.00;100247.69;5029609;28;20034;-78
2023/04/16 05:21:00;;;;;;;2.95;1.15;;;;;;;5.02;100.00;100252.53;5029752;28;20041;-77
2023/04/16 05:23:26;;;;;;;2.45;1.20;;;;;;;5.11;100.00;100251.84;5028768;28;20455;-76
2023/04/16 05:25:51;;;;;;;2.13;1.38;;;;;;;5.15;100.00;100250.69;5013406;28;20471;-77
2023/04/16 05:28:17;;;;;;;3.65;1.33;;;;;;;5.16;100.00;100266.06;5026424;28;20033;-78
2023/04/16 05:30:42;;;;;;;2.33;1.23;;;;;;;5.21;100.00;100261.34;5031201;28;20080;-78
2023/04/16 05:33:08;;;;;;;2.33;1.48;;;;;;;5.30;100.00;100265.81;5033010;28;20029;-78
2023/04/16 05:35:33;;;;;;;3.97;1.70;;;;;;;5.45;100.00;100268.19;5026276;28;20491;-78
2023/04/16 05:37:59;;;;;;;2.10;1.15;;;;;;;5.41;100.00;100270.19;5018794;28;20098;-78
2023/04/16 05:40:25;;;;;;;4.35;1.52;;;;;;;5.53;100.00;100266.69;5012184;28;20222;-76
2023/04/16 05:42:50;;;;;;;4.00;2.28;;;;;;;5.66;100.00;100269.16;5021227;28;20048;-77
2023/04/16 05:45:16;;;;;;;2.78;1.92;;;;;;;5.65;100.00;100281.25;5030753;28;20037;-77
2023/04/16 05:47:41;;;;;;;1.70;1.25;;;;;;;5.67;100.00;100276.75;5023106;28;20129;-78
2023/04/16 05:50:07;;;;;;;2.72;1.85;;;;;;;5.83;100.00;100280.75;5019340;28;20033;-77
2023/04/16 05:52:32;;;;;;;2.15;1.73;;;;;;;5.86;100.00;100283.94;5033630;28;20224;-77
2023/04/16 05:55:00;;;;;;;3.75;1.55;;;;;;;5.97;100.00;100277.97;5028008;28;20069;-77
2023/04/16 05:57:26;;;;;;;2.45;1.42;;;;;;;6.12;100.00;100294.06;5027222;28;20073;-78
2023/04/16 05:59:52;;;;;;;2.33;1.90;;;;;;;6.25;100.00;100290.34;5021330;28;20093;-77
2023/04/16 06:02:18;;;;;;;2.15;1.92;;;;;;;6.31;100.00;100271.75;5021094;28;20567;-76
2023/04/16 06:04:44;;;;;;;4.25;2.08;;;;;;;6.28;100.00;100286.72;5013084;28;20058;-76
2023/04/16 06:07:09;;;;;;;5.20;2.17;;;;;;;6.46;100.00;100294.78;5008721;28;20094;-78
2023/04/16 06:09:35;;;;;;;2.72;1.30;;;;;;;6.58;100.00;100299.00;5021646;28;20034;-76
2023/04/16 06:12:00;;;;;;;2.55;1.30;;;;;;;6.65;100.00;100292.34;5024147;28;20108;-78
2023/04/16 06:14:26;;;;;;;2.55;1.70;;;;;;;6.79;100.00;100310.19;5034763;28;20053;-78
2023/04/16 06:16:51;;;;;;;2.40;1.67;;;;;;;6.86;100.00;100295.81;5021519;28;20022;-77
2023/04/16 06:19:17;;;;;;;2.08;1.60;;;;;;;6.91;100.00;100298.03;5025478;28;20034;-77
2023/04/16 06:21:42;;;;;;;4.68;2.75;;;;;;;6.97;100.00;100302.72;5009506;28;20022;-77
2023/04/16 06:24:07;;;;;;;5.63;3.47;;;;;;;7.00;100.00;100305.03;5022362;28;20396;-77
2023/04/16 06:26:33;;;;;;;3.88;2.33;;;;;;;7.06;100.00;100299.38;5024623;28;20018;-76
2023/04/16 06:28:58;;;;;;;2.10;1.70;;;;;;;7.14;100.00;100299.53;5015159;28;20030;-77
2023/04/16 06:31:24;;;;;;;3.03;0.77;;;;;;;7.16;100.00;100304.59;5005802;28;20387;-73
2023/04/16 06:33:49;;;;;;;3.40;0.60;;;;;;;7.24;100.00;100299.59;5006060;28;20384;-77
2023/04/16 06:36:15;;;;;;;1.38;0.60;;;;;;;7.39;100.00;100302.69;5001836;28;20038;-77
2023/04/16 06:38:41;;;;;;;2.20;0.95;;;;;;;7.44;100.00;100303.97;5007194;28;20479;-77
2023/04/16 06:41:06;;;;;;;1.33;1.08;;;;;;;7.52;100.00;100317.09;5006003;28;20033;-77
2023/04/16 06:43:32;;;;;;;2.78;0.82;;;;;;;7.54;100.00;100309.19;4998691;28;20046;-76
2023/04/16 06:45:58;;;;;;;1.75;1.02;;;;;;;7.58;100.00;100313.97;5005978;28;20037;-77
2023/04/16 06:48:24;;;;;;;2.55;1.35;;;;;;;7.66;100.00;100316.75;5004325;28;20037;-77
2023/04/16 06:50:49;;;;;;;4.10;1.55;;;;;;;7.79;100.00;100307.94;5007847;28;20103;-77
2023/04/16 06:53:15;;;;;;;2.45;1.45;;;;;;;7.89;100.00;100306.19;5002717;28;20117;-77
2023/04/16 06:55:40;;;;;;;3.33;1.45;;;;;;;7.97;100.00;100319.34;5014920;28;20026;-77
2023/04/16 06:58:06;;;;;;;1.48;0.82;;;;;;;8.04;100.00;100320.44;5009761;28;20124;-74
2023/04/16 07:00:31;;;;;;;4.65;1.52;;;;;;;8.16;100.00;100319.38;5012669;28;20051;-77
2023/04/16 07:02:58;;;;;;;1.73;1.00;;;;;;;8.28;100.00;100318.31;5011047;28;20030;-77
2023/04/16 07:05:24;;;;;;;3.83;1.08;;;;;;;8.41;100.00;100318.13;5009144;28;20053;-76
2023/04/16 07:07:49;;;;;;;4.28;1.23;;;;;;;8.53;100.00;100319.63;5014177;28;20026;-77
2023/04/16 07:10:15;;;;;;;3.00;1.20;;;;;;;8.53;100.00;100326.59;5014564;28;20052;-77
2023/04/16 07:12:40;;;;;;;2.53;0.88;;;;;;;8.68;100.00;100324.41;5011569;28;20033;-77
2023/04/16 07:15:06;;;;;;;4.03;1.60;;;;;;;8.86;100.00;100318.41;5007169;28;20477;-77
2023/04/16 07:17:32;;;;;;;4.65;2.15;;;;;;;9.05;100.00;100322.78;5013070;28;20115;-77
2023/04/16 07:19:57;;;;;;;2.47;1.40;;;;;;;9.17;100.00;100319.06;5013023;28;20136;-77
2023/04/16 07:22:22;;;;;;;2.35;1.45;;;;;;;9.25;100.00;100324.41;5012798;28;20122;-76
2023/04/16 07:24:48;;;;;;;2.65;1.48;;;;;;;9.23;100.00;100325.50;5010087;28;20525;-76
2023/04/16 07:27:13;;;;;;;2.63;1.77;;;;;;;9.27;100.00;100326.84;5007296;28;20032;-76
2023/04/16 07:29:39;;;;;;;2.10;1.63;;;;;;;9.37;100.00;100326.84;5013700;28;20463;-76
2023/04/16 07:32:04;;;;;;;2.45;1.60;;;;;;;9.58;100.00;100324.88;5015236;28;20045;-77
2023/04/16 07:34:29;;;;;;;2.15;1.40;;;;;;;9.73;100.00;100336.47;5029438;28;20038;-77
2023/04/16 07:36:55;;;;;;;2.70;1.92;;;;;;;9.77;100.00;100334.41;5010949;28;20036;-78
2023/04/16 07:39:21;;;;;;;2.88;1.45;;;;;;;9.93;100.00;100325.00;5002101;28;20081;-77
2023/04/16 07:41:46;;;;;;;1.85;1.13;;;;;;;10.07;100.00;100330.69;5011118;28;20125;-78
2023/04/16 07:44:12;;;;;;;1.50;0.50;;;;;;;10.10;100.00;100346.84;5008884;28;20034;-78
2023/04/16 07:46:37;;;;;;;2.65;0.68;;;;;;;10.24;100.00;100338.59;5015914;28;20030;-78
2023/04/16 07:49:02;;;;;;;1.90;0.85;;;;;;;10.36;100.00;100348.81;5010950;28;20034;-78
2023/04/16 07:51:28;;;;;;;1.27;0.60;;;;;;;10.43;100.00;100334.22;5010959;28;20033;-77
2023/04/16 07:53:53;;;;;;;1.63;0.55;;;;;;;10.53;100.00;100345.41;5007129;28;20084;-77
2023/04/16 07:56:19;;;;;;;4.07;0.55;;;;;;;10.54;100.00;100347.03;5010034;28;20391;-78
2023/04/16 07:58:44;;;;;;;1.08;0.28;;;;;;;10.72;97.39;100334.84;5009592;28;20121;-78
2023/04/16 08:01:10;;;;;;;2.58;0.30;;;;;;;10.86;100.00;100339.56;4998750;28;20030;-78
2023/04/16 08:03:35;;;;;;;1.88;0.90;;;;;;;11.05;100.00;100350.78;5001102;28;20113;-79
2023/04/16 08:06:01;;;;;;;2.10;0.38;;;;;;;11.18;100.00;100346.00;5000981;28;20046;-79
2023/04/16 08:08:26;;;;;;;1.58;0.30;;;;;;;11.30;100.00;100342.19;5002270;28;20129;-78
2023/04/16 08:10:54;;;;;;;1.02;0.40;;;;;;;11.38;100.00;100344.81;5006943;28;20026;-78
2023/04/16 08:13:22;;;;;;;0.60;0.20;;;;;;;11.17;100.00;100347.78;5001104;28;20048;-77
2023/04/16 08:15:48;;;;;;;0.60;0.30;;;;;;;11.29;100.00;100345.75;5011793;28;20036;-76
2023/04/16 08:18:14;;;;;;;1.70;0.43;;;;;;;11.45;100.00;100347.66;5007728;28;20033;-77
2023/04/16 08:20:40;;;;;;;3.05;0.50;;;;;;;11.60;100.00;100349.56;5016267;28;20042;-77
2023/04/16 08:23:06;;;;;;;1.00;0.30;;;;;;;11.80;100.00;100362.44;5006761;28;20038;-77
2023/04/16 08:25:31;;;;;;;0.68;0.20;;;;;;;12.07;100.00;100353.56;5005750;28;20083;-77
2023/04/16 08:27:56;;;;;;;0.85;0.20;;;;;;;12.37;98.47;100357.44;5005034;28;20132;-77
2023/04/16 08:30:22;;;;;;;1.02;0.40;;;;;;;12.45;96.73;100354.84;5011221;28;20125;-76
2023/04/16 08:32:48;;;;;;;0.60;0.20;;;;;;;12.42;92.99;100350.75;5003473;28;20022;-76
2023/04/16 08:35:14;;;;;;;1.02;0.30;;;;;;;12.56;92.68;100354.56;5001766;28;20045;-76
2023/04/16 08:37:39;;;;;;;0.55;0.10;;;;;;;12.38;86.95;100362.50;5003486;28;20025;-76
2023/04/16 08:40:06;;;;;;;1.02;0.10;;;;;;;12.52;83.54;100355.84;5003328;28;20408;-76
2023/04/16 08:42:35;;;;;;;0.95;0.20;;;;;;;12.47;81.41;100356.31;5007560;28;20083;-76
2023/04/16 08:45:12;;;;;;;0.32;0.10;;;;;;;12.62;77.82;100359.13;5010649;28;20377;-76
2023/04/16 08:47:38;;;;;;;0.40;0.10;;;;;;;12.69;77.79;100357.53;5005570;28;20025;-76
2023/04/16 08:50:05;;;;;;;5.15;0.20;;;;;;;12.64;76.13;100362.41;5005731;28;20510;-76
2023/04/16 08:52:31;;;;;;;0.77;0.20;;;;;;;12.73;76.18;100361.47;5004793;28;20479;-76
2023/04/16 08:55:07;;;;;;;0.88;0.20;;;;;;;12.84;71.54;100363.75;5005964;28;20034;-77
2023/04/16 08:57:47;;;;;;;0.30;0.10;;;;;;;12.95;67.16;100355.59;5007916;28;20041;-78
2023/04/16 09:00:13;;;;;;;0.20;0.00;;;;;;;13.00;70.62;100376.03;5021545;28;20034;-76
2023/04/16 09:02:39;;;;;;;0.17;0.00;;;;;;;12.97;67.90;100355.41;5016532;28;20022;-78
2023/04/16 09:05:07;;;;;;;0.22;0.10;;;;;;;12.99;66.81;100368.34;5022107;28;20049;-77
2023/04/16 09:07:33;;;;;;;1.17;0.00;;;;;;;12.98;67.50;100359.69;5017414;28;20399;-77
2023/04/16 09:10:00;;;;;;;0.10;0.00;;;;;;;12.99;64.49;100357.88;5007151;28;20095;-76
2023/04/16 09:12:26;;;;;;;0.20;0.10;;;;;;;13.04;62.92;100364.25;5008871;28;20108;-76
2023/04/16 09:14:51;;;;;;;0.20;0.10;;;;;;;13.17;63.46;100362.00;5007370;28;20033;-77
2023/04/16 09:17:18;;;;;;;1.42;0.10;;;;;;;13.31;65.28;100357.06;5008105;28;20124;-77
2023/04/16 09:19:44;;;;;;;0.68;0.10;;;;;;;13.35;64.10;100353.16;5007767;28;20026;-77
2023/04/16 09:22:10;;;;;;;0.17;0.10;;;;;;;13.36;63.65;100352.97;5006071;28;20029;-77
2023/04/16 09:24:37;;;;;;;0.22;0.03;;;;;;;13.40;60.00;100354.28;5009017;28;20096;-77
2023/04/16 09:27:03;;;;;;;0.75;0.08;;;;;;;13.46;61.96;100356.25;5006074;28;20030;-76
2023/04/16 09:29:33;;;;;;;0.20;0.00;;;;;;;13.41;59.81;100353.31;5008430;28;20490;-77
2023/04/16 09:32:05;;;;;;;0.52;0.10;;;;;;;13.48;61.96;100343.00;5007705;28;20380;-77
2023/04/16 09:34:35;;;;;;;0.17;0.00;;;;;;;13.52;62.92;100350.34;5008955;28;20029;-77
2023/04/16 09:37:16;;;;;;;0.00;0.00;;;;;;;13.59;61.15;100340.84;5012286;28;20487;-76
2023/04/16 09:39:52;;;;;;;0.28;0.10;;;;;;;13.57;63.49;100348.06;5033760;28;20095;-77
2023/04/16 09:42:22;;;;;;;2.10;0.10;;;;;;;13.48;61.16;100354.28;5033411;28;20038;-75
2023/04/16 09:44:48;;;;;;;0.20;0.10;;;;;;;13.36;63.09;100350.38;5025385;28;20498;-76
2023/04/16 09:47:13;;;;;;;0.20;0.10;;;;;;;13.33;64.67;100358.56;5028318;28;20034;-76
2023/04/16 09:49:43;;;;;;;0.30;0.10;;;;;;;13.46;64.33;100356.25;5039556;22;20132;-88
2023/04/16 09:52:29;;;;;;;;;;;;;;;;;;;;;
2023/04/16 09:54:55;;;;;;;0.70;0.10;;;;;;;13.54;62.71;100358.88;5019781;28;20037;-88
2023/04/16 09:57:22;;;;;;;0.22;0.10;;;;;;;13.45;63.05;100354.63;5022562;28;20448;-88
2023/04/16 10:00:09;;;;;;;1.08;0.13;;;;;;;13.45;56.24;100354.63;5031171;28;20450;-89
2023/04/16 10:02:37;;;;;;;0.70;0.10;;;;;;;13.53;64.38;100353.78;5016274;28;20491;-91
2023/04/16 10:05:03;;;;;;;0.22;0.10;;;;;;;13.64;60.92;100348.22;5015425;28;20037;-89
2023/04/16 10:07:33;;;;;;;0.90;0.10;;;;;;;13.64;62.13;100352.63;5020136;28;20048;-90
2023/04/16 10:09:59;;;;;;;0.38;0.10;;;;;;;13.67;58.91;100352.31;5026363;28;20491;-90
2023/04/16 10:12:26;;;;;;;0.20;0.10;;;;;;;13.59;61.15;100347.91;5026820;28;22333;-90
2023/04/16 10:14:51;;;;;;;0.10;0.00;;;;;;;13.74;62.66;100345.38;5027492;28;20095;-90
2023/04/16 10:17:18;;;;;;;0.38;0.10;;;;;;;13.86;59.72;100357.13;5016026;28;20034;-90
2023/04/16 10:19:44;;;;;;;0.40;0.32;;;;;;;13.83;59.61;100337.34;5022978;28;20036;-91
2023/04/16 10:22:10;;;;;;;0.40;0.10;;;;;;;13.93;58.50;100335.34;5024605;28;20056;-91
2023/04/16 10:24:35;;;;;;;0.50;0.10;;;;;;;14.02;58.47;100341.38;5026351;28;20029;-90
2023/04/16 10:27:01;;;;;;;0.85;0.20;;;;;;;13.94;60.38;100341.41;5025450;28;20089;-91
2023/04/16 10:29:28;;;;;;;0.38;0.10;;;;;;;14.09;59.47;100342.34;5021967;28;20112;-89
2023/04/16 10:32:02;;;;;;;1.02;0.10;;;;;;;14.05;59.37;100341.03;5019513;28;20590;-90
2023/04/16 10:34:31;;;;;;;0.95;0.10;;;;;;;14.17;56.90;100326.59;5023138;28;20620;-91
2023/04/16 10:36:56;;;;;;;0.20;0.00;;;;;;;14.47;57.98;100329.41;5017999;28;20022;-91
2023/04/16 10:39:25;;;;;;;0.40;0.10;;;;;;;14.60;55.75;100334.91;5021632;28;20038;-90
2023/04/16 10:42:07;;;;;;;1.20;0.10;;;;;;;14.47;50.94;100332.03;5017554;28;20049;-90
2023/04/16 10:44:32;;;;;;;0.40;0.10;;;;;;;14.51;55.93;100338.56;5017643;28;20025;-90
2023/04/16 10:46:58;;;;;;;0.20;0.10;;;;;;;14.48;55.03;100326.59;5012196;28;20022;-91
2023/04/16 10:49:25;;;;;;;0.20;0.10;;;;;;;14.59;54.20;100335.88;5014768;28;20057;-90
2023/04/16 10:51:57;;;;;;;1.75;0.10;;;;;;;14.71;54.13;100303.00;5008896;28;20026;-90
2023/04/16 10:54:28;;;;;;;0.30;0.10;;;;;;;14.80;54.91;100314.25;5006807;28;20106;-90
2023/04/16 10:56:58;;;;;;;0.65;0.10;;;;;;;14.92;52.73;100318.91;5008732;28;20057;-90
2023/04/16 10:59:28;;;;;;;0.10;0.10;;;;;;;15.03;52.82;100309.81;5015219;28;20087;-90
2023/04/16 11:02:00;;;;;;;0.47;0.10;;;;;;;14.94;52.66;100314.31;5010609;28;20065;-90
2023/04/16 11:04:27;;;;;;;0.20;0.10;;;;;;;14.97;51.27;100320.19;5019639;28;20033;-90
2023/04/16 11:07:01;;;;;;;0.15;0.10;;;;;;;14.93;51.18;100315.31;5009304;28;20058;-90
2023/04/16 11:10:03;;;;;;;0.28;0.10;;;;;;;14.71;47.49;100317.91;5016874;28;20026;-91
2023/04/16 11:12:39;;;;;;;0.30;0.10;;;;;;;14.64;49.59;100311.78;5014324;28;20115;-90
2023/04/16 11:15:05;;;;;;;0.22;0.00;;;;;;;14.62;53.09;100309.31;5021441;28;20029;-89
2023/04/16 11:17:39;;;;;;;0.25;0.00;;;;;;;14.63;51.00;100315.38;5013962;28;20037;-90
2023/04/16 11:20:15;;;;;;;0.10;0.00;;;;;;;14.66;51.85;100326.31;5013290;28;20057;-89
2023/04/16 11:22:41;;;;;;;0.30;0.10;;;;;;;14.49;50.82;100324.81;5015032;28;20030;-90